Sharpsville, Pennsylvania
Current Conditions -  °F | °C
As of 8:51 PM on Monday 22 Dec 2014 (Local Time) from KYNG Reporting Station
Overcast Overcast  
Wind Chill: 26°   Ceiling: 11000
Heat Index: 35°   Visibility: 9mi
Dew Point: 28°   Wind: 14mph
Humidity: 76%   Direction: 110°ESE
Pressure: 29.94"   Gusts: NA
Location:  41.26°N, 80.47°W
Report Text: KYNG 230151Z 11012KT 9SM BKN110 OVC130 02/M02 A2994 RMK AO2 SLP153 T00171022
Loading
Personal Weather Stations






























Interactive Weather Map New forecast layout! Learn more

10-Day Weather Forecast

Advertisements
Track Severe Weather on mobile